createdAt,value
2019-01-13T00:04:11.457Z,92353.99
2019-01-13T00:07:01.046Z,92357.91
2019-01-13T00:09:50.614Z,92357.61
2019-01-13T00:12:58.416Z,92366.34
2019-01-13T00:15:47.996Z,92365.25
2019-01-13T00:21:50.014Z,92344.44
2019-01-13T00:24:39.591Z,92357.44
2019-01-13T00:27:29.237Z,92375.73
2019-01-13T00:36:58.665Z,92371.91
2019-01-13T00:39:46.517Z,92369.31
2019-01-13T00:42:36.157Z,92391.29
2019-01-13T00:49:25.171Z,92385.33
2019-01-13T00:52:15.052Z,92373.61
2019-01-13T00:58:51.451Z,92402.27
2019-01-13T01:01:41.014Z,92393.66
2019-01-13T01:08:52.665Z,92409.02
2019-01-13T01:14:35.529Z,92402.71
2019-01-13T01:20:08.688Z,92438.63
2019-01-13T01:22:58.261Z,92429.74
2019-01-13T01:25:47.835Z,92463.57
2019-01-13T01:28:37.439Z,92466.53
2019-01-13T01:32:03.899Z,92468.70
2019-01-13T01:34:53.537Z,92487.94
2019-01-13T01:37:43.067Z,92490.44
2019-01-13T01:40:32.923Z,92513.97
2019-01-13T01:47:10.160Z,92548.47
2019-01-13T01:50:00.021Z,92547.81
2019-01-13T01:53:26.102Z,92574.20
2019-01-13T02:00:41.975Z,92582.11
2019-01-13T02:03:31.616Z,92572.30
2019-01-13T02:06:21.202Z,92598.55
2019-01-13T02:09:28.620Z,92615.65
2019-01-13T02:12:18.192Z,92620.56
2019-01-13T02:15:30.381Z,92617.69
2019-01-13T02:18:12.713Z,92627.17
2019-01-13T02:21:02.429Z,92647.19
2019-01-13T02:23:52.043Z,92653.25
2019-01-13T02:30:28.120Z,92658.44
2019-01-13T02:33:17.793Z,92654.77
2019-01-13T02:36:07.362Z,92673.45
2019-01-13T02:39:14.805Z,92690.27
2019-01-13T02:50:01.950Z,92814.16
2019-01-13T02:57:31.355Z,92819.88
2019-01-13T03:04:48.217Z,92831.68
2019-01-13T03:07:54.362Z,92831.34
2019-01-13T03:10:44.265Z,92832.22
2019-01-13T03:13:33.842Z,92846.44
2019-01-13T03:16:23.418Z,92863.70
2019-01-13T03:19:06.079Z,92877.93
2019-01-13T03:21:55.932Z,92893.48
2019-01-13T03:24:45.787Z,92906.89
2019-01-13T03:28:10.662Z,92915.58
2019-01-13T03:31:11.342Z,92911.36
2019-01-13T03:37:23.445Z,92928.81
2019-01-13T03:40:48.214Z,92915.91
2019-01-13T03:43:38.132Z,92932.20
2019-01-13T03:46:27.747Z,92939.20
2019-01-13T03:49:17.308Z,92937.05
2019-01-13T03:52:05.297Z,92925.86
2019-01-13T03:54:55.153Z,92936.14
2019-01-13T03:57:44.832Z,92940.09
2019-01-13T04:00:34.419Z,92939.71
2019-01-13T04:03:24.010Z,92933.72
2019-01-13T04:06:14.017Z,92918.98
2019-01-13T04:11:59.970Z,92952.23
2019-01-13T04:14:49.603Z,92949.44
2019-01-13T04:17:31.637Z,92976.22
2019-01-13T04:20:21.248Z,92989.80
2019-01-13T04:23:10.906Z,92997.67
2019-01-13T04:26:18.083Z,92982.47
2019-01-13T04:29:07.673Z,92988.66
2019-01-13T04:31:57.246Z,92996.06
2019-01-13T04:35:05.171Z,93015.30
2019-01-13T04:37:55.084Z,93017.55
2019-01-13T04:40:44.663Z,92994.63
2019-01-13T04:43:34.222Z,93051.63
2019-01-13T04:50:47.044Z,93055.09
2019-01-13T04:53:36.581Z,93053.15
2019-01-13T04:56:26.232Z,93049.76
2019-01-13T04:59:15.877Z,93070.13
2019-01-13T05:02:05.726Z,93084.46
2019-01-13T05:13:25.279Z,93106.28
2019-01-13T05:16:50.740Z,93094.66
2019-01-13T05:19:33.437Z,93104.68
2019-01-13T05:22:23.019Z,93117.63
2019-01-13T05:28:57.195Z,93128.82
2019-01-13T05:36:11.920Z,93123.81
2019-01-13T05:41:51.022Z,93131.52
2019-01-13T05:44:40.591Z,93119.33
2019-01-13T05:47:30.213Z,93136.34
2019-01-13T05:54:05.221Z,93127.48
2019-01-13T05:56:54.817Z,93122.59
2019-01-13T06:04:21.353Z,93121.31
2019-01-13T06:07:11.138Z,93114.16
2019-01-13T06:12:56.812Z,93140.02
2019-01-13T06:18:28.241Z,93126.07
2019-01-13T06:24:13.902Z,93150.84
2019-01-13T06:27:03.479Z,93143.78
2019-01-13T06:30:12.264Z,93145.65
2019-01-13T06:33:19.713Z,93157.66
2019-01-13T07:29:39.511Z,93280.20
2019-01-13T07:44:28.113Z,93330.67
2019-01-13T07:50:19.609Z,93305.58
2019-01-13T07:56:05.534Z,93336.83
2019-01-13T08:23:09.643Z,93349.14
2019-01-13T08:29:16.068Z,93319.44
2019-01-13T08:32:06.199Z,93273.59
2019-01-13T08:45:25.080Z,93236.91
2019-01-13T08:52:10.365Z,93241.20
2019-01-13T08:57:56.936Z,93197.56
2019-01-13T09:17:22.077Z,93167.59
2019-01-13T09:23:37.551Z,93166.16
2019-01-13T09:35:16.838Z,93131.25
2019-01-13T09:41:55.165Z,93126.51
2019-01-13T09:44:43.373Z,93097.51
2019-01-13T09:53:25.671Z,93079.09
2019-01-13T10:02:05.644Z,93066.00
2019-01-13T10:07:51.525Z,93056.87
2019-01-13T10:11:19.339Z,93062.23
2019-01-13T10:18:03.024Z,93045.60
2019-01-13T10:20:52.905Z,93012.50
2019-01-13T10:23:42.470Z,93028.06
2019-01-13T10:26:32.044Z,93006.60
2019-01-13T10:29:39.260Z,93018.04
2019-01-13T10:32:28.945Z,93013.38
2019-01-13T10:39:06.333Z,92975.78
2019-01-13T10:41:55.930Z,92963.52
2019-01-13T10:44:45.521Z,92958.24
2019-01-13T10:48:11.769Z,92959.49
2019-01-13T10:51:01.342Z,92951.44
2019-01-13T10:54:11.091Z,92934.09
2019-01-13T10:57:00.739Z,92934.44
2019-01-13T10:59:50.432Z,92912.41
2019-01-13T11:02:40.013Z,92914.91
2019-01-13T11:05:29.607Z,92908.64
2019-01-13T11:08:19.127Z,92891.70
2019-01-13T11:14:01.696Z,92876.17
2019-01-13T11:16:51.366Z,92858.63
2019-01-13T11:19:33.583Z,92872.83
2019-01-13T11:22:23.217Z,92862.88
2019-01-13T11:28:42.141Z,92858.13
2019-01-13T11:31:31.810Z,92801.99
2019-01-13T11:34:21.678Z,92809.62
2019-01-13T11:37:11.375Z,92785.95
2019-01-13T11:40:00.948Z,92768.75
2019-01-13T11:42:50.828Z,92754.54
2019-01-13T11:45:40.514Z,92766.16
2019-01-13T11:48:30.135Z,92741.80
2019-01-13T11:51:20.276Z,92737.59
2019-01-13T11:54:09.861Z,92722.46
2019-01-13T11:56:59.485Z,92695.69
2019-01-13T11:59:49.108Z,92710.81
2019-01-13T12:02:39.080Z,92699.33
2019-01-13T12:05:28.632Z,92689.92
2019-01-13T12:08:18.574Z,92667.78
2019-01-13T12:11:08.184Z,92650.60
2019-01-13T12:13:57.779Z,92646.52
2019-01-13T12:16:47.404Z,92624.99
2019-01-13T12:19:29.933Z,92625.23
2019-01-13T12:22:19.541Z,92620.80
2019-01-13T12:25:31.043Z,92609.64
2019-01-13T12:28:20.670Z,92609.77
2019-01-13T12:31:10.603Z,92598.82
2019-01-13T12:34:00.191Z,92609.80
2019-01-13T12:36:49.796Z,92601.05
2019-01-13T12:39:39.434Z,92578.36
2019-01-13T12:42:28.999Z,92563.56
2019-01-13T12:45:19.655Z,92558.48
2019-01-13T12:48:09.276Z,92533.58
2019-01-13T12:50:59.050Z,92553.69
2019-01-13T12:53:48.947Z,92524.07
2019-01-13T12:56:38.548Z,92518.06
2019-01-13T13:03:32.126Z,92490.16
2019-01-13T13:06:21.699Z,92450.12
2019-01-13T13:09:11.378Z,92471.69
2019-01-13T13:12:00.977Z,92443.06
2019-01-13T13:14:50.924Z,92442.83
2019-01-13T13:17:45.149Z,92432.78
2019-01-13T13:20:34.734Z,92448.55
2019-01-13T13:23:25.032Z,92396.84
2019-01-13T13:26:14.648Z,92377.20
2019-01-13T13:29:04.341Z,92367.62
2019-01-13T13:31:53.906Z,92347.08
2019-01-13T13:34:43.507Z,92344.24
2019-01-13T13:37:33.080Z,92339.77
2019-01-13T13:41:02.648Z,92301.75
2019-01-13T13:43:52.244Z,92317.03
2019-01-13T13:46:41.912Z,92299.12
2019-01-13T13:49:31.507Z,92305.28
2019-01-13T13:56:10.633Z,92281.17
2019-01-13T13:59:37.144Z,92276.80
2019-01-13T14:03:03.483Z,92255.04
2019-01-13T14:05:53.352Z,92229.08
2019-01-13T14:08:42.958Z,92214.55
2019-01-13T14:15:33.954Z,92206.55
2019-01-13T14:18:16.303Z,92185.34
2019-01-13T14:21:05.885Z,92189.33
2019-01-13T14:23:54.377Z,92184.48
2019-01-13T14:29:33.455Z,92202.64
2019-01-13T14:32:23.032Z,92199.20
2019-01-13T14:35:12.670Z,92173.67
2019-01-13T14:38:02.237Z,92190.80
2019-01-13T14:40:51.818Z,92217.44
2019-01-13T14:43:41.392Z,92264.83
2019-01-13T14:46:31.015Z,92271.25
2019-01-13T14:49:20.642Z,92256.60
2019-01-13T14:52:10.842Z,92245.00
2019-01-13T14:55:00.722Z,92268.73
2019-01-13T14:57:50.290Z,92249.75
2019-01-13T15:00:40.173Z,92266.77
2019-01-13T15:03:29.770Z,92262.91
2019-01-13T15:06:19.358Z,92266.52
2019-01-13T15:12:21.029Z,92244.58
2019-01-13T15:15:11.372Z,92250.13
2019-01-13T15:18:00.969Z,92238.80
2019-01-13T15:20:50.582Z,92252.27
2019-01-13T15:23:40.520Z,92225.73
2019-01-13T15:26:30.124Z,92206.84
2019-01-13T15:32:09.208Z,92202.86
2019-01-13T15:34:58.838Z,92194.06
2019-01-13T15:37:48.471Z,92182.00
2019-01-13T15:40:38.108Z,92186.88
2019-01-13T15:47:16.940Z,92195.20
2019-01-13T15:50:28.865Z,92190.39
2019-01-13T15:53:18.456Z,92190.00
2019-01-13T15:56:43.835Z,92205.01
2019-01-13T15:59:33.390Z,92204.55
2019-01-13T16:02:23.371Z,92172.65
2019-01-13T16:05:12.935Z,92216.51
2019-01-13T16:08:03.080Z,92236.76
2019-01-13T16:10:53.011Z,92245.34
2019-01-13T16:18:06.559Z,92274.33
2019-01-13T16:23:38.769Z,92245.20
2019-01-13T16:26:28.351Z,92234.21
2019-01-13T16:29:16.875Z,92231.23
2019-01-13T16:32:06.456Z,92234.97
2019-01-13T16:35:10.175Z,92232.45
2019-01-13T16:38:42.840Z,92218.37
2019-01-13T16:41:51.416Z,92217.12
2019-01-13T16:44:41.280Z,92224.91
2019-01-13T16:47:38.555Z,92201.77
2019-01-13T16:50:28.405Z,92194.80
2019-01-13T16:53:17.999Z,92223.50
2019-01-13T16:56:07.574Z,92209.32
2019-01-13T16:58:57.169Z,92233.81
2019-01-13T17:01:46.744Z,92220.17
2019-01-13T17:04:36.337Z,92230.58
2019-01-13T17:11:24.884Z,92212.23
2019-01-13T17:14:14.503Z,92133.47
2019-01-13T17:17:04.094Z,92196.49
2019-01-13T17:19:46.298Z,92182.02
2019-01-13T17:22:35.907Z,92196.84
2019-01-13T17:25:26.441Z,92191.46
2019-01-13T17:28:33.614Z,92196.84
2019-01-13T17:34:12.679Z,92190.30
2019-01-13T17:37:02.252Z,92177.38
2019-01-13T17:40:46.262Z,92166.06
2019-01-13T17:43:35.841Z,92180.46
2019-01-13T17:46:25.426Z,92121.48
2019-01-13T17:53:02.949Z,92113.67
2019-01-13T17:55:50.986Z,92080.08
2019-01-13T17:58:40.556Z,92087.73
2019-01-13T18:01:51.575Z,92079.40
2019-01-13T18:05:36.867Z,92065.42
2019-01-13T18:08:26.870Z,92033.94
2019-01-13T18:11:16.945Z,92008.98
2019-01-13T18:14:07.207Z,91994.11
2019-01-13T18:16:56.903Z,91996.94
2019-01-13T18:19:39.544Z,91961.41
2019-01-13T18:22:29.125Z,91943.34
2019-01-13T18:25:18.798Z,91916.34
2019-01-13T18:28:08.364Z,91898.39
2019-01-13T18:30:57.988Z,91873.59
2019-01-13T18:37:51.681Z,91859.02
2019-01-13T18:40:58.909Z,91810.45
2019-01-13T18:43:48.603Z,91824.88
2019-01-13T18:46:38.490Z,91802.43
2019-01-13T18:49:28.106Z,91804.20
2019-01-13T18:52:17.695Z,91809.52
2019-01-13T18:55:08.079Z,91798.39
2019-01-13T18:58:17.548Z,91807.94
2019-01-13T19:01:27.737Z,91792.37
2019-01-13T19:04:17.324Z,91789.91
2019-01-13T19:07:06.909Z,91784.75
2019-01-13T19:09:56.523Z,91800.13
2019-01-13T19:13:08.171Z,91810.38
2019-01-13T19:15:57.840Z,91777.69
2019-01-13T19:19:16.951Z,91796.34
2019-01-13T19:21:59.779Z,91809.47
2019-01-13T19:32:47.123Z,91813.52
2019-01-13T19:36:12.171Z,91778.00
2019-01-13T19:39:19.352Z,91798.27
2019-01-13T19:43:05.382Z,91767.87
2019-01-13T19:48:50.943Z,91753.77
2019-01-13T19:51:40.560Z,91730.52
2019-01-13T19:54:29.079Z,91739.83
2019-01-13T19:57:55.457Z,91778.28
2019-01-13T20:01:21.980Z,91741.67
2019-01-13T20:04:11.556Z,91749.39
2019-01-13T20:07:01.172Z,91789.67
2019-01-13T20:09:50.809Z,91800.00
2019-01-13T20:12:40.396Z,91800.55
2019-01-13T20:15:30.026Z,91794.34
2019-01-13T20:18:19.647Z,91828.30
2019-01-13T20:21:02.052Z,91806.42
2019-01-13T20:26:47.902Z,91799.09
2019-01-13T20:29:37.507Z,91851.72
2019-01-13T20:32:27.087Z,91839.86
2019-01-13T20:38:49.840Z,91859.77
2019-01-13T20:41:39.738Z,91896.08
2019-01-13T20:44:47.231Z,91890.09
2019-01-13T20:51:39.533Z,91909.40
2019-01-13T20:54:29.102Z,91945.84
2019-01-13T20:57:18.699Z,91979.11
2019-01-13T21:00:31.197Z,92013.00
2019-01-13T21:03:21.082Z,92010.10
2019-01-13T21:06:10.660Z,92051.28
2019-01-13T21:09:00.878Z,92069.66
2019-01-13T21:11:50.463Z,92090.59
2019-01-13T21:14:40.028Z,92125.52
2019-01-13T21:17:30.181Z,92139.77
2019-01-13T21:23:05.755Z,92235.39
2019-01-13T21:25:54.377Z,92266.95
2019-01-13T21:28:44.221Z,92322.72
2019-01-13T21:31:32.571Z,92371.02
2019-01-13T21:34:22.168Z,92420.40
2019-01-13T21:37:11.742Z,92560.91
2019-01-13T21:40:20.214Z,92586.05
2019-01-13T21:43:10.076Z,92694.20
2019-01-13T21:45:59.641Z,92792.42
2019-01-13T21:48:49.522Z,92871.57
2019-01-13T21:51:39.094Z,92891.77
2019-01-13T21:54:28.663Z,92947.34
2019-01-13T21:57:18.256Z,92967.42
2019-01-13T22:00:31.589Z,92964.16
2019-01-13T22:03:21.836Z,92989.36
2019-01-13T22:06:11.399Z,93002.30
2019-01-13T22:08:59.701Z,93041.52
2019-01-13T22:11:49.264Z,93064.80
2019-01-13T22:14:38.846Z,93069.14
2019-01-13T22:18:24.301Z,93098.73
2019-01-13T22:21:06.774Z,93129.39
2019-01-13T22:23:56.713Z,93143.16
2019-01-13T22:26:46.953Z,93182.13
2019-01-13T22:29:36.570Z,93207.03
2019-01-13T22:32:26.137Z,93252.40
2019-01-13T22:35:15.751Z,93278.20
2019-01-13T22:38:06.250Z,93319.23
2019-01-13T22:41:13.703Z,93351.77
2019-01-13T22:44:03.266Z,93339.95
2019-01-13T22:49:45.816Z,93404.23
2019-01-13T22:52:35.374Z,93461.27
2019-01-13T22:55:24.982Z,93491.55
2019-01-13T22:59:09.191Z,93545.86
2019-01-13T23:02:35.331Z,93571.66
2019-01-13T23:05:23.431Z,93591.90
2019-01-13T23:08:13.050Z,93588.14
2019-01-13T23:11:58.451Z,93648.88
2019-01-13T23:14:48.027Z,93670.69
2019-01-13T23:17:37.708Z,93703.27
2019-01-13T23:20:20.281Z,93706.03
2019-01-13T23:23:09.834Z,93741.80
2019-01-13T23:25:59.418Z,93782.81
2019-01-13T23:28:48.984Z,93793.77
2019-01-13T23:31:38.548Z,93840.34
2019-01-13T23:34:28.866Z,93861.30
2019-01-13T23:37:19.514Z,93882.23
2019-01-13T23:40:09.171Z,93893.06
2019-01-13T23:42:58.744Z,93924.81
2019-01-13T23:45:48.661Z,93953.55
2019-01-13T23:48:38.210Z,93957.20
2019-01-13T23:51:27.924Z,93997.56
2019-01-13T23:54:17.527Z,94004.70
2019-01-13T23:57:07.095Z,94031.55
2019-01-13T23:59:56.671Z,94059.61
